sensor_id;sensor_type;location;lat;lon;timestamp;P1;durP1;ratioP1;P2;durP2;ratioP2
43154;SDS011;34212;51.018;13.586;2023-06-26T00:03:30;6.00;;;4.90;;
43154;SDS011;34212;51.018;13.586;2023-06-26T00:08:33;8.07;;;5.35;;
43154;SDS011;34212;51.018;13.586;2023-06-26T00:13:34;8.77;;;5.65;;
43154;SDS011;34212;51.018;13.586;2023-06-26T00:18:36;7.63;;;4.45;;
43154;SDS011;34212;51.018;13.586;2023-06-26T00:23:37;5.95;;;5.25;;
43154;SDS011;34212;51.018;13.586;2023-06-26T00:28:40;5.82;;;4.97;;
43154;SDS011;34212;51.018;13.586;2023-06-26T00:33:42;9.07;;;4.72;;
43154;SDS011;34212;51.018;13.586;2023-06-26T00:38:43;6.03;;;5.05;;
43154;SDS011;34212;51.018;13.586;2023-06-26T00:43:45;10.18;;;5.13;;
43154;SDS011;34212;51.018;13.586;2023-06-26T00:48:48;14.77;;;4.88;;
43154;SDS011;34212;51.018;13.586;2023-06-26T00:53:51;7.88;;;4.95;;
43154;SDS011;34212;51.018;13.586;2023-06-26T00:58:53;13.68;;;4.68;;
43154;SDS011;34212;51.018;13.586;2023-06-26T01:03:54;12.93;;;4.82;;
43154;SDS011;34212;51.018;13.586;2023-06-26T01:08:59;9.25;;;5.25;;
43154;SDS011;34212;51.018;13.586;2023-06-26T01:14:00;6.15;;;4.95;;
43154;SDS011;34212;51.018;13.586;2023-06-26T01:24:15;9.48;;;4.80;;
43154;SDS011;34212;51.018;13.586;2023-06-26T01:29:23;13.00;;;5.30;;
43154;SDS011;34212;51.018;13.586;2023-06-26T01:34:26;7.47;;;5.32;;
43154;SDS011;34212;51.018;13.586;2023-06-26T01:39:28;10.57;;;5.45;;
43154;SDS011;34212;51.018;13.586;2023-06-26T01:44:30;9.32;;;4.78;;
43154;SDS011;34212;51.018;13.586;2023-06-26T01:49:47;14.55;;;5.50;;
43154;SDS011;34212;51.018;13.586;2023-06-26T01:54:55;10.80;;;4.72;;
43154;SDS011;34212;51.018;13.586;2023-06-26T02:00:00;18.30;;;5.30;;
43154;SDS011;34212;51.018;13.586;2023-06-26T02:05:13;18.33;;;5.32;;
43154;SDS011;34212;51.018;13.586;2023-06-26T02:10:15;14.95;;;5.57;;
43154;SDS011;34212;51.018;13.586;2023-06-26T02:15:17;10.60;;;5.18;;
43154;SDS011;34212;51.018;13.586;2023-06-26T02:20:18;11.82;;;5.40;;
43154;SDS011;34212;51.018;13.586;2023-06-26T02:25:20;20.27;;;5.60;;
43154;SDS011;34212;51.018;13.586;2023-06-26T02:30:21;12.77;;;5.28;;
43154;SDS011;34212;51.018;13.586;2023-06-26T02:35:23;15.48;;;5.25;;
43154;SDS011;34212;51.018;13.586;2023-06-26T02:40:24;19.23;;;5.40;;
43154;SDS011;34212;51.018;13.586;2023-06-26T02:45:27;10.80;;;5.20;;
43154;SDS011;34212;51.018;13.586;2023-06-26T02:55:42;17.05;;;5.57;;
43154;SDS011;34212;51.018;13.586;2023-06-26T03:00:44;16.73;;;5.68;;
43154;SDS011;34212;51.018;13.586;2023-06-26T03:05:49;15.73;;;5.28;;
43154;SDS011;34212;51.018;13.586;2023-06-26T03:10:51;13.27;;;4.47;;
43154;SDS011;34212;51.018;13.586;2023-06-26T03:15:52;7.85;;;4.43;;
43154;SDS011;34212;51.018;13.586;2023-06-26T03:20:58;8.43;;;4.72;;
43154;SDS011;34212;51.018;13.586;2023-06-26T03:26:01;10.38;;;4.60;;
43154;SDS011;34212;51.018;13.586;2023-06-26T03:31:08;11.95;;;5.03;;
43154;SDS011;34212;51.018;13.586;2023-06-26T03:36:10;5.90;;;4.30;;
43154;SDS011;34212;51.018;13.586;2023-06-26T03:41:11;5.20;;;4.63;;
43154;SDS011;34212;51.018;13.586;2023-06-26T03:46:15;5.72;;;4.90;;
43154;SDS011;34212;51.018;13.586;2023-06-26T03:51:17;7.13;;;4.55;;
43154;SDS011;34212;51.018;13.586;2023-06-26T03:56:19;6.13;;;4.72;;
43154;SDS011;34212;51.018;13.586;2023-06-26T04:01:20;7.10;;;4.55;;
43154;SDS011;34212;51.018;13.586;2023-06-26T04:06:23;5.22;;;4.38;;
43154;SDS011;34212;51.018;13.586;2023-06-26T04:11:25;8.35;;;4.32;;
43154;SDS011;34212;51.018;13.586;2023-06-26T04:16:28;6.05;;;5.07;;
43154;SDS011;34212;51.018;13.586;2023-06-26T04:26:31;6.43;;;4.80;;
43154;SDS011;34212;51.018;13.586;2023-06-26T04:31:33;8.25;;;5.25;;
43154;SDS011;34212;51.018;13.586;2023-06-26T04:41:40;11.05;;;6.03;;
43154;SDS011;34212;51.018;13.586;2023-06-26T04:46:42;9.55;;;5.20;;
43154;SDS011;34212;51.018;13.586;2023-06-26T04:51:44;7.43;;;5.03;;
43154;SDS011;34212;51.018;13.586;2023-06-26T04:56:45;5.55;;;4.80;;
43154;SDS011;34212;51.018;13.586;2023-06-26T05:01:48;7.00;;;5.40;;
43154;SDS011;34212;51.018;13.586;2023-06-26T05:06:50;7.07;;;4.97;;
43154;SDS011;34212;51.018;13.586;2023-06-26T05:11:51;7.00;;;5.30;;
43154;SDS011;34212;51.018;13.586;2023-06-26T05:16:53;5.18;;;4.68;;
43154;SDS011;34212;51.018;13.586;2023-06-26T05:21:54;6.15;;;4.60;;
43154;SDS011;34212;51.018;13.586;2023-06-26T05:26:57;6.20;;;4.68;;
43154;SDS011;34212;51.018;13.586;2023-06-26T05:31:59;6.43;;;4.85;;
43154;SDS011;34212;51.018;13.586;2023-06-26T05:37:01;7.22;;;5.13;;
43154;SDS011;34212;51.018;13.586;2023-06-26T05:47:04;7.68;;;4.68;;
43154;SDS011;34212;51.018;13.586;2023-06-26T05:52:06;5.28;;;4.72;;
43154;SDS011;34212;51.018;13.586;2023-06-26T05:57:08;5.30;;;4.80;;
43154;SDS011;34212;51.018;13.586;2023-06-26T06:07:12;6.75;;;4.50;;
43154;SDS011;34212;51.018;13.586;2023-06-26T06:17:16;8.70;;;4.87;;
43154;SDS011;34212;51.018;13.586;2023-06-26T06:22:17;6.65;;;4.68;;
43154;SDS011;34212;51.018;13.586;2023-06-26T06:27:19;5.65;;;4.40;;
43154;SDS011;34212;51.018;13.586;2023-06-26T06:32:20;7.38;;;4.63;;
43154;SDS011;34212;51.018;13.586;2023-06-26T06:37:22;5.03;;;4.55;;
43154;SDS011;34212;51.018;13.586;2023-06-26T06:42:23;5.70;;;5.15;;
43154;SDS011;34212;51.018;13.586;2023-06-26T06:47:25;5.50;;;5.00;;
43154;SDS011;34212;51.018;13.586;2023-06-26T06:52:26;5.00;;;4.50;;
43154;SDS011;34212;51.018;13.586;2023-06-26T06:57:28;4.72;;;4.32;;
43154;SDS011;34212;51.018;13.586;2023-06-26T07:07:31;5.65;;;4.32;;
43154;SDS011;34212;51.018;13.586;2023-06-26T07:12:35;5.78;;;4.75;;
43154;SDS011;34212;51.018;13.586;2023-06-26T07:17:37;5.32;;;4.78;;
43154;SDS011;34212;51.018;13.586;2023-06-26T07:22:40;4.97;;;4.45;;
43154;SDS011;34212;51.018;13.586;2023-06-26T07:27:42;7.63;;;4.40;;
43154;SDS011;34212;51.018;13.586;2023-06-26T07:32:45;8.27;;;5.15;;
43154;SDS011;34212;51.018;13.586;2023-06-26T07:37:47;5.72;;;5.10;;
43154;SDS011;34212;51.018;13.586;2023-06-26T07:47:50;6.78;;;5.00;;
43154;SDS011;34212;51.018;13.586;2023-06-26T07:52:51;5.35;;;4.85;;
43154;SDS011;34212;51.018;13.586;2023-06-26T07:57:54;5.95;;;4.68;;
43154;SDS011;34212;51.018;13.586;2023-06-26T08:02:56;5.63;;;5.07;;
43154;SDS011;34212;51.018;13.586;2023-06-26T08:07:58;10.65;;;5.05;;
43154;SDS011;34212;51.018;13.586;2023-06-26T08:12:59;6.88;;;5.15;;
43154;SDS011;34212;51.018;13.586;2023-06-26T08:18:01;9.20;;;4.80;;
43154;SDS011;34212;51.018;13.586;2023-06-26T08:23:03;5.60;;;4.80;;
43154;SDS011;34212;51.018;13.586;2023-06-26T08:28:05;6.05;;;4.70;;
43154;SDS011;34212;51.018;13.586;2023-06-26T08:33:07;5.38;;;4.50;;
43154;SDS011;34212;51.018;13.586;2023-06-26T08:38:13;5.68;;;4.93;;
43154;SDS011;34212;51.018;13.586;2023-06-26T08:43:14;5.25;;;4.72;;
43154;SDS011;34212;51.018;13.586;2023-06-26T08:48:16;5.80;;;4.47;;
43154;SDS011;34212;51.018;13.586;2023-06-26T08:58:58;5.30;;;4.80;;
43154;SDS011;34212;51.018;13.586;2023-06-26T09:04:00;5.70;;;4.80;;
43154;SDS011;34212;51.018;13.586;2023-06-26T09:09:02;5.80;;;4.53;;
43154;SDS011;34212;51.018;13.586;2023-06-26T09:14:05;5.68;;;4.07;;
43154;SDS011;34212;51.018;13.586;2023-06-26T09:19:09;7.13;;;4.88;;
43154;SDS011;34212;51.018;13.586;2023-06-26T09:24:12;6.82;;;4.88;;
43154;SDS011;34212;51.018;13.586;2023-06-26T09:29:14;5.55;;;5.03;;
43154;SDS011;34212;51.018;13.586;2023-06-26T09:34:16;21.38;;;4.97;;
43154;SDS011;34212;51.018;13.586;2023-06-26T09:39:18;8.02;;;4.53;;
43154;SDS011;34212;51.018;13.586;2023-06-26T09:44:22;5.93;;;4.40;;
43154;SDS011;34212;51.018;13.586;2023-06-26T09:49:23;5.05;;;4.15;;
43154;SDS011;34212;51.018;13.586;2023-06-26T09:54:25;4.72;;;4.15;;
43154;SDS011;34212;51.018;13.586;2023-06-26T09:59:30;5.80;;;4.32;;
43154;SDS011;34212;51.018;13.586;2023-06-26T10:04:32;5.50;;;4.60;;
43154;SDS011;34212;51.018;13.586;2023-06-26T10:09:35;6.82;;;5.05;;
43154;SDS011;34212;51.018;13.586;2023-06-26T10:14:41;9.48;;;4.93;;
43154;SDS011;34212;51.018;13.586;2023-06-26T10:19:47;7.90;;;4.75;;
43154;SDS011;34212;51.018;13.586;2023-06-26T10:24:49;6.05;;;4.45;;
43154;SDS011;34212;51.018;13.586;2023-06-26T10:29:54;6.53;;;4.63;;
43154;SDS011;34212;51.018;13.586;2023-06-26T10:34:57;8.43;;;4.55;;
43154;SDS011;34212;51.018;13.586;2023-06-26T10:39:59;6.78;;;4.68;;
43154;SDS011;34212;51.018;13.586;2023-06-26T10:55:27;5.63;;;4.60;;
43154;SDS011;34212;51.018;13.586;2023-06-26T11:00:29;7.18;;;4.63;;
43154;SDS011;34212;51.018;13.586;2023-06-26T11:05:32;5.20;;;4.70;;
43154;SDS011;34212;51.018;13.586;2023-06-26T11:10:53;8.00;;;3.92;;
43154;SDS011;34212;51.018;13.586;2023-06-26T11:16:00;6.32;;;4.70;;
43154;SDS011;34212;51.018;13.586;2023-06-26T11:21:06;5.97;;;4.78;;
43154;SDS011;34212;51.018;13.586;2023-06-26T11:31:32;4.82;;;4.40;;
43154;SDS011;34212;51.018;13.586;2023-06-26T11:36:41;5.32;;;4.82;;
43154;SDS011;34212;51.018;13.586;2023-06-26T11:41:45;8.82;;;4.75;;
43154;SDS011;34212;51.018;13.586;2023-06-26T11:46:47;5.30;;;4.75;;
43154;SDS011;34212;51.018;13.586;2023-06-26T11:51:52;6.00;;;4.68;;
43154;SDS011;34212;51.018;13.586;2023-06-26T11:56:56;5.63;;;5.13;;
43154;SDS011;34212;51.018;13.586;2023-06-26T12:01:59;6.93;;;4.97;;
43154;SDS011;34212;51.018;13.586;2023-06-26T12:07:01;5.45;;;4.95;;
43154;SDS011;34212;51.018;13.586;2023-06-26T12:12:05;6.88;;;4.80;;
43154;SDS011;34212;51.018;13.586;2023-06-26T12:17:12;5.15;;;4.28;;
43154;SDS011;34212;51.018;13.586;2023-06-26T12:22:15;6.53;;;4.22;;
43154;SDS011;34212;51.018;13.586;2023-06-26T12:27:18;6.97;;;4.60;;
43154;SDS011;34212;51.018;13.586;2023-06-26T12:32:24;10.10;;;5.20;;
43154;SDS011;34212;51.018;13.586;2023-06-26T12:37:36;7.75;;;4.95;;
43154;SDS011;34212;51.018;13.586;2023-06-26T12:42:41;6.40;;;4.35;;
43154;SDS011;34212;51.018;13.586;2023-06-26T12:47:43;8.23;;;5.15;;
43154;SDS011;34212;51.018;13.586;2023-06-26T12:52:44;5.07;;;4.53;;
43154;SDS011;34212;51.018;13.586;2023-06-26T12:57:46;4.72;;;4.30;;
43154;SDS011;34212;51.018;13.586;2023-06-26T13:02:47;4.90;;;4.45;;
43154;SDS011;34212;51.018;13.586;2023-06-26T13:07:49;6.25;;;4.90;;
43154;SDS011;34212;51.018;13.586;2023-06-26T13:12:51;5.63;;;4.88;;
43154;SDS011;34212;51.018;13.586;2023-06-26T13:17:52;8.63;;;4.65;;
43154;SDS011;34212;51.018;13.586;2023-06-26T13:22:54;5.10;;;4.57;;
43154;SDS011;34212;51.018;13.586;2023-06-26T13:27:56;5.97;;;4.80;;
43154;SDS011;34212;51.018;13.586;2023-06-26T13:32:58;10.02;;;5.55;;
43154;SDS011;34212;51.018;13.586;2023-06-26T13:37:59;6.47;;;5.38;;
43154;SDS011;34212;51.018;13.586;2023-06-26T13:43:01;6.18;;;4.78;;
43154;SDS011;34212;51.018;13.586;2023-06-26T13:48:03;5.43;;;4.72;;
43154;SDS011;34212;51.018;13.586;2023-06-26T13:53:05;5.57;;;5.00;;
43154;SDS011;34212;51.018;13.586;2023-06-26T13:58:07;5.50;;;5.00;;
43154;SDS011;34212;51.018;13.586;2023-06-26T14:03:09;5.35;;;4.60;;
43154;SDS011;34212;51.018;13.586;2023-06-26T14:08:12;5.85;;;5.25;;
43154;SDS011;34212;51.018;13.586;2023-06-26T14:13:14;5.97;;;5.22;;
43154;SDS011;34212;51.018;13.586;2023-06-26T14:18:16;5.20;;;4.70;;
43154;SDS011;34212;51.018;13.586;2023-06-26T14:23:18;7.78;;;5.15;;
43154;SDS011;34212;51.018;13.586;2023-06-26T14:28:20;5.75;;;4.65;;
43154;SDS011;34212;51.018;13.586;2023-06-26T14:33:21;5.93;;;5.18;;
43154;SDS011;34212;51.018;13.586;2023-06-26T14:38:23;5.50;;;5.00;;
43154;SDS011;34212;51.018;13.586;2023-06-26T14:43:24;7.82;;;5.60;;
43154;SDS011;34212;51.018;13.586;2023-06-26T14:48:26;5.47;;;4.80;;
43154;SDS011;34212;51.018;13.586;2023-06-26T14:53:31;7.70;;;5.10;;
43154;SDS011;34212;51.018;13.586;2023-06-26T14:58:32;7.30;;;5.50;;
43154;SDS011;34212;51.018;13.586;2023-06-26T15:03:34;5.78;;;5.28;;
43154;SDS011;34212;51.018;13.586;2023-06-26T15:08:36;5.88;;;5.28;;
43154;SDS011;34212;51.018;13.586;2023-06-26T15:13:37;9.73;;;5.65;;
43154;SDS011;34212;51.018;13.586;2023-06-26T15:18:40;6.50;;;5.53;;
43154;SDS011;34212;51.018;13.586;2023-06-26T15:23:42;5.55;;;5.05;;
43154;SDS011;34212;51.018;13.586;2023-06-26T15:28:43;5.55;;;5.05;;
43154;SDS011;34212;51.018;13.586;2023-06-26T15:33:45;6.68;;;4.85;;
43154;SDS011;34212;51.018;13.586;2023-06-26T15:38:46;6.25;;;4.90;;
43154;SDS011;34212;51.018;13.586;2023-06-26T15:43:48;5.85;;;5.25;;
43154;SDS011;34212;51.018;13.586;2023-06-26T15:48:49;5.85;;;5.25;;
43154;SDS011;34212;51.018;13.586;2023-06-26T15:53:51;5.90;;;5.10;;
43154;SDS011;34212;51.018;13.586;2023-06-26T15:58:52;5.95;;;5.35;;
43154;SDS011;34212;51.018;13.586;2023-06-26T16:03:54;6.57;;;5.88;;
43154;SDS011;34212;51.018;13.586;2023-06-26T16:08:55;56.40;;;7.53;;
43154;SDS011;34212;51.018;13.586;2023-06-26T16:13:57;19.95;;;7.22;;
43154;SDS011;34212;51.018;13.586;2023-06-26T16:18:59;1.20;;;1.10;;
43154;SDS011;34212;51.018;13.586;2023-06-26T16:24:01;0.80;;;0.80;;
43154;SDS011;34212;51.018;13.586;2023-06-26T16:29:02;0.50;;;0.50;;
43154;SDS011;34212;51.018;13.586;2023-06-26T16:39:05;0.50;;;0.50;;
43154;SDS011;34212;51.018;13.586;2023-06-26T16:44:07;0.50;;;0.50;;
43154;SDS011;34212;51.018;13.586;2023-06-26T16:49:08;0.55;;;0.55;;
43154;SDS011;34212;51.018;13.586;2023-06-26T16:54:10;0.50;;;0.50;;
43154;SDS011;34212;51.018;13.586;2023-06-26T16:59:11;0.50;;;0.50;;
43154;SDS011;34212;51.018;13.586;2023-06-26T17:04:13;0.50;;;0.50;;
43154;SDS011;34212;51.018;13.586;2023-06-26T17:09:14;0.50;;;0.50;;
43154;SDS011;34212;51.018;13.586;2023-06-26T17:14:16;10.70;;;8.57;;
43154;SDS011;34212;51.018;13.586;2023-06-26T17:19:18;12.40;;;10.10;;
43154;SDS011;34212;51.018;13.586;2023-06-26T17:24:19;21.50;;;10.25;;
43154;SDS011;34212;51.018;13.586;2023-06-26T17:29:21;20.55;;;11.52;;
43154;SDS011;34212;51.018;13.586;2023-06-26T17:34:22;18.05;;;11.75;;
43154;SDS011;34212;51.018;13.586;2023-06-26T17:39:24;16.90;;;12.93;;
43154;SDS011;34212;51.018;13.586;2023-06-26T17:44:27;15.25;;;13.60;;
43154;SDS011;34212;51.018;13.586;2023-06-26T17:49:30;21.92;;;14.88;;
43154;SDS011;34212;51.018;13.586;2023-06-26T17:54:31;21.80;;;14.93;;
43154;SDS011;34212;51.018;13.586;2023-06-26T17:59:33;17.20;;;14.52;;
43154;SDS011;34212;51.018;13.586;2023-06-26T18:04:35;15.93;;;13.65;;
43154;SDS011;34212;51.018;13.586;2023-06-26T18:09:37;18.15;;;14.18;;
43154;SDS011;34212;51.018;13.586;2023-06-26T18:14:39;17.58;;;12.23;;
43154;SDS011;34212;51.018;13.586;2023-06-26T18:24:42;14.95;;;10.20;;
43154;SDS011;34212;51.018;13.586;2023-06-26T18:29:44;16.08;;;12.27;;
43154;SDS011;34212;51.018;13.586;2023-06-26T18:34:45;16.02;;;12.82;;
43154;SDS011;34212;51.018;13.586;2023-06-26T18:39:47;23.60;;;13.85;;
43154;SDS011;34212;51.018;13.586;2023-06-26T18:44:48;17.45;;;14.80;;
43154;SDS011;34212;51.018;13.586;2023-06-26T18:49:50;16.67;;;12.77;;
43154;SDS011;34212;51.018;13.586;2023-06-26T18:54:53;14.60;;;11.70;;
43154;SDS011;34212;51.018;13.586;2023-06-26T18:59:55;12.15;;;10.93;;
43154;SDS011;34212;51.018;13.586;2023-06-26T19:04:56;20.88;;;11.93;;
43154;SDS011;34212;51.018;13.586;2023-06-26T19:09:58;16.50;;;11.48;;
43154;SDS011;34212;51.018;13.586;2023-06-26T19:15:01;13.18;;;11.45;;
43154;SDS011;34212;51.018;13.586;2023-06-26T19:20:03;11.52;;;10.32;;
43154;SDS011;34212;51.018;13.586;2023-06-26T19:25:06;13.38;;;10.30;;
43154;SDS011;34212;51.018;13.586;2023-06-26T19:30:08;11.82;;;10.45;;
43154;SDS011;34212;51.018;13.586;2023-06-26T19:40:11;11.10;;;10.00;;
43154;SDS011;34212;51.018;13.586;2023-06-26T19:45:13;15.13;;;11.18;;
43154;SDS011;34212;51.018;13.586;2023-06-26T19:50:14;16.92;;;11.45;;
43154;SDS011;34212;51.018;13.586;2023-06-26T19:55:17;11.45;;;10.10;;
43154;SDS011;34212;51.018;13.586;2023-06-26T20:00:18;16.38;;;11.27;;
43154;SDS011;34212;51.018;13.586;2023-06-26T20:05:20;12.95;;;10.73;;
43154;SDS011;34212;51.018;13.586;2023-06-26T20:10:22;15.20;;;11.45;;
43154;SDS011;34212;51.018;13.586;2023-06-26T20:15:23;14.32;;;10.75;;
43154;SDS011;34212;51.018;13.586;2023-06-26T20:20:25;22.63;;;12.73;;
43154;SDS011;34212;51.018;13.586;2023-06-26T20:25:26;16.08;;;11.32;;
43154;SDS011;34212;51.018;13.586;2023-06-26T20:30:28;12.30;;;10.98;;
43154;SDS011;34212;51.018;13.586;2023-06-26T20:35:30;14.93;;;10.57;;
43154;SDS011;34212;51.018;13.586;2023-06-26T20:40:31;15.13;;;11.10;;
43154;SDS011;34212;51.018;13.586;2023-06-26T20:45:33;15.27;;;10.82;;
43154;SDS011;34212;51.018;13.586;2023-06-26T20:50:35;13.00;;;10.27;;
43154;SDS011;34212;51.018;13.586;2023-06-26T20:55:37;15.30;;;11.40;;
43154;SDS011;34212;51.018;13.586;2023-06-26T21:00:39;15.80;;;11.48;;
43154;SDS011;34212;51.018;13.586;2023-06-26T21:05:41;14.65;;;10.93;;
43154;SDS011;34212;51.018;13.586;2023-06-26T21:15:44;23.70;;;10.33;;
43154;SDS011;34212;51.018;13.586;2023-06-26T21:20:46;21.48;;;10.77;;
43154;SDS011;34212;51.018;13.586;2023-06-26T21:25:47;19.83;;;11.77;;
43154;SDS011;34212;51.018;13.586;2023-06-26T21:30:49;20.92;;;11.30;;
43154;SDS011;34212;51.018;13.586;2023-06-26T21:35:50;18.23;;;11.93;;
43154;SDS011;34212;51.018;13.586;2023-06-26T21:40:52;22.58;;;12.52;;
43154;SDS011;34212;51.018;13.586;2023-06-26T21:45:53;15.38;;;12.23;;
43154;SDS011;34212;51.018;13.586;2023-06-26T21:50:55;17.13;;;13.00;;
43154;SDS011;34212;51.018;13.586;2023-06-26T21:55:57;22.58;;;11.98;;
43154;SDS011;34212;51.018;13.586;2023-06-26T22:00:58;14.70;;;9.93;;
43154;SDS011;34212;51.018;13.586;2023-06-26T22:06:00;12.73;;;9.05;;
43154;SDS011;34212;51.018;13.586;2023-06-26T22:11:02;12.82;;;9.88;;
43154;SDS011;34212;51.018;13.586;2023-06-26T22:16:03;23.00;;;12.57;;
43154;SDS011;34212;51.018;13.586;2023-06-26T22:21:05;24.95;;;11.85;;
43154;SDS011;34212;51.018;13.586;2023-06-26T22:31:08;17.02;;;11.48;;
43154;SDS011;34212;51.018;13.586;2023-06-26T22:36:10;18.60;;;11.32;;
43154;SDS011;34212;51.018;13.586;2023-06-26T22:41:11;17.48;;;12.32;;
43154;SDS011;34212;51.018;13.586;2023-06-26T22:46:13;20.80;;;12.15;;
43154;SDS011;34212;51.018;13.586;2023-06-26T22:51:14;27.45;;;12.73;;
43154;SDS011;34212;51.018;13.586;2023-06-26T22:56:16;18.48;;;13.27;;
43154;SDS011;34212;51.018;13.586;2023-06-26T23:01:17;29.35;;;13.85;;
43154;SDS011;34212;51.018;13.586;2023-06-26T23:06:20;27.00;;;15.20;;
43154;SDS011;34212;51.018;13.586;2023-06-26T23:11:23;23.85;;;14.38;;
43154;SDS011;34212;51.018;13.586;2023-06-26T23:16:24;12.05;;;9.25;;
43154;SDS011;34212;51.018;13.586;2023-06-26T23:21:26;14.95;;;9.48;;
43154;SDS011;34212;51.018;13.586;2023-06-26T23:26:27;13.07;;;9.55;;
43154;SDS011;34212;51.018;13.586;2023-06-26T23:31:33;11.80;;;8.88;;
43154;SDS011;34212;51.018;13.586;2023-06-26T23:41:41;9.05;;;6.30;;
43154;SDS011;34212;51.018;13.586;2023-06-26T23:46:42;9.40;;;6.20;;
43154;SDS011;34212;51.018;13.586;2023-06-26T23:51:44;8.23;;;6.20;;
43154;SDS011;34212;51.018;13.586;2023-06-26T23:56:46;18.40;;;8.18;;
